KAID

Anderson Municipal-Darlington Field Airport

Anderson, Indiana, USA
METAR KAID 181215Z AUTO 00000KT 10SM CLR M01/M02 A3052 RMK AO2 T10141018
Observed Flight Rules
Oct-18 @ 12:15 UTC (5 minutes ago) Visual Flight Rules
Visibility Clouds
10 miles
  • Clear skies
Temperatures Readings
Current -1°C / 30°F
Dewpoint -2°C / 28°F
Humidity 93%
Altimeter 30.52" Hg
Pressure 1034 hPa
Elevation 280
METAR KAID 181215Z AUTO 00000KT 10SM CLR M01/M02 A3052 RMK AO2 T10141018
Observed Flight Rules
Oct-18 @ 12:15 UTC
(5 minutes ago)
VFR
Clouds
  • Clear skies
Temperature Dewpoint
-1°C / 30°F -2°C / 28°F
Humidity Altimeter Pressure
93% 30.52" Hg 1034 hPa